Terminal Aerodrome Forecast
Issued by NWS

Home | Current Version | Previous Version | Text Only | Print | Product List | Glossary On
Versions: 1 2 3 4 5 6 7 8 9 10 11 12 13 14 15 16 17
000
FTUS42 KMLB 161124
TAFSFB
TAF
KSFB 161124Z 1612/1712 01006KT P6SM SCT025 BKN035
      TEMPO 1612/1613 BKN025
     FM161500 03007KT P6SM FEW025 SCT040
     FM170000 05004KT P6SM FEW040 BKN250=

USA.gov is the U.S. government's official web portal to all federal, state and local government web resources and services.